ENCN

Kristiansand Airport

Kjevik, Norway
METAR ENCN 261250Z 11009KT CAVOK 24/10 Q1027
Observed Flight Rules
May-26 @ 12:50 UTC (36 minutes ago) Visual Flight Rules
Wind Visibility Clouds
110° at 9 knots 10,000+ meters
  • Clear skies
Temperatures Readings
Current 24°C / 75°F
Dewpoint 10°C / 50°F
Humidity 41%
Altimeter 30.32" Hg
Pressure 1027 hPa
Elevation 17
METAR ENCN 261250Z 11009KT CAVOK 24/10 Q1027
Observed Flight Rules
May-26 @ 12:50 UTC
(36 minutes ago)
VFR
Wind Visibility
110° at 9 knots 10,000+ meters
Clouds
  • Clear skies
Temperature Dewpoint
24°C / 75°F 10°C / 50°F
Humidity Altimeter Pressure
41% 30.32" Hg 1027 hPa